Terminal Aerodrome Forecast
Issued by NWS Twin Cities, MN

Home | Current Version | Previous Version | Text Only | Print | Product List | Glossary On
Versions: 1 2 3 4 5 6 7 8 9 10 11 12 13 14 15 16 17
722
FTUS43 KMPX 231755
TAFEAU
TAF
KEAU 231755Z 2318/2418 09010KT P6SM FEW025
     FM231930 10010KT P6SM SCT025 OVC035
     FM240200 10007KT P6SM SCT012 OVC025
     FM241000 12008KT P6SM OVC008=

USA.gov is the U.S. government's official web portal to all federal, state and local government web resources and services.